sensor_id;sensor_type;location;lat;lon;timestamp;pressure;altitude;pressure_sealevel;temperature;humidity
69855;BME280;57146;48.140;16.304;2022-07-06T00:00:31;99566.47;;;17.88;73.56
69855;BME280;57146;48.140;16.304;2022-07-06T00:02:58;99564.94;;;17.87;73.53
69855;BME280;57146;48.140;16.304;2022-07-06T00:05:25;99573.28;;;17.86;73.54
69855;BME280;57146;48.140;16.304;2022-07-06T00:07:52;99569.91;;;17.89;74.24
69855;BME280;57146;48.140;16.304;2022-07-06T00:10:19;99564.84;;;18.00;73.62
69855;BME280;57146;48.140;16.304;2022-07-06T00:12:46;99566.59;;;18.08;73.95
69855;BME280;57146;48.140;16.304;2022-07-06T00:15:13;99567.69;;;18.07;73.62
69855;BME280;57146;48.140;16.304;2022-07-06T00:17:40;99575.69;;;18.07;74.07
69855;BME280;57146;48.140;16.304;2022-07-06T00:20:07;99577.78;;;18.13;74.13
69855;BME280;57146;48.140;16.304;2022-07-06T00:22:34;99584.84;;;18.22;74.07
69855;BME280;57146;48.140;16.304;2022-07-06T00:25:01;99603.31;;;18.30;74.79
69855;BME280;57146;48.140;16.304;2022-07-06T00:27:27;99598.00;;;18.14;74.95
69855;BME280;57146;48.140;16.304;2022-07-06T00:29:55;99603.53;;;18.09;75.21
69855;BME280;57146;48.140;16.304;2022-07-06T00:32:21;99602.88;;;18.12;75.76
69855;BME280;57146;48.140;16.304;2022-07-06T00:34:48;99610.78;;;18.09;76.73
69855;BME280;57146;48.140;16.304;2022-07-06T00:37:15;99612.31;;;18.10;77.11
69855;BME280;57146;48.140;16.304;2022-07-06T00:39:42;99615.41;;;18.12;77.14
69855;BME280;57146;48.140;16.304;2022-07-06T00:42:09;99624.28;;;18.16;77.49
69855;BME280;57146;48.140;16.304;2022-07-06T00:44:36;99624.47;;;18.23;78.23
69855;BME280;57146;48.140;16.304;2022-07-06T00:47:03;99617.94;;;18.36;78.54
69855;BME280;57146;48.140;16.304;2022-07-06T00:49:30;99615.53;;;18.47;78.53
69855;BME280;57146;48.140;16.304;2022-07-06T00:51:57;99616.91;;;18.57;77.93
69855;BME280;57146;48.140;16.304;2022-07-06T00:54:26;99609.00;;;18.60;77.64
69855;BME280;57146;48.140;16.304;2022-07-06T00:56:54;99611.31;;;18.62;77.55
69855;BME280;57146;48.140;16.304;2022-07-06T00:59:23;99608.66;;;18.62;77.46
69855;BME280;57146;48.140;16.304;2022-07-06T01:01:51;99601.00;;;18.60;77.72
69855;BME280;57146;48.140;16.304;2022-07-06T01:04:18;99601.72;;;18.57;77.67
69855;BME280;57146;48.140;16.304;2022-07-06T01:06:45;99606.25;;;18.57;77.57
69855;BME280;57146;48.140;16.304;2022-07-06T01:09:12;99601.25;;;18.55;77.71
69855;BME280;57146;48.140;16.304;2022-07-06T01:11:40;99597.81;;;18.55;77.57
69855;BME280;57146;48.140;16.304;2022-07-06T01:14:07;99589.81;;;18.55;77.56
69855;BME280;57146;48.140;16.304;2022-07-06T01:16:35;99596.69;;;18.56;77.50
69855;BME280;57146;48.140;16.304;2022-07-06T01:19:02;99591.03;;;18.57;77.62
69855;BME280;57146;48.140;16.304;2022-07-06T01:21:29;99591.03;;;18.57;77.55
69855;BME280;57146;48.140;16.304;2022-07-06T01:23:56;99587.56;;;18.57;77.46
69855;BME280;57146;48.140;16.304;2022-07-06T01:26:23;99578.97;;;18.63;77.13
69855;BME280;57146;48.140;16.304;2022-07-06T01:28:51;99576.22;;;18.60;77.17
69855;BME280;57146;48.140;16.304;2022-07-06T01:31:25;99576.31;;;18.63;76.87
69855;BME280;57146;48.140;16.304;2022-07-06T01:33:55;99576.06;;;18.69;76.79
69855;BME280;57146;48.140;16.304;2022-07-06T01:36:22;99571.75;;;18.64;76.64
69855;BME280;57146;48.140;16.304;2022-07-06T01:38:54;99573.72;;;18.67;76.44
69855;BME280;57146;48.140;16.304;2022-07-06T01:41:21;99577.28;;;18.71;76.13
69855;BME280;57146;48.140;16.304;2022-07-06T01:43:48;99573.91;;;18.74;75.73
69855;BME280;57146;48.140;16.304;2022-07-06T01:46:16;99574.34;;;18.76;75.70
69855;BME280;57146;48.140;16.304;2022-07-06T01:48:44;99576.94;;;18.73;75.79
69855;BME280;57146;48.140;16.304;2022-07-06T01:51:12;99580.53;;;18.80;75.28
69855;BME280;57146;48.140;16.304;2022-07-06T01:53:41;99583.19;;;18.80;75.14
69855;BME280;57146;48.140;16.304;2022-07-06T01:56:09;99573.59;;;18.76;74.96
69855;BME280;57146;48.140;16.304;2022-07-06T01:58:37;99579.69;;;18.76;74.79
69855;BME280;57146;48.140;16.304;2022-07-06T02:03:36;99586.06;;;18.72;74.76
69855;BME280;57146;48.140;16.304;2022-07-06T02:06:05;99584.94;;;18.73;74.55
69855;BME280;57146;48.140;16.304;2022-07-06T02:08:36;99588.53;;;18.80;73.90
69855;BME280;57146;48.140;16.304;2022-07-06T02:11:03;99591.66;;;18.82;73.97
69855;BME280;57146;48.140;16.304;2022-07-06T02:13:34;99595.69;;;18.76;73.97
69855;BME280;57146;48.140;16.304;2022-07-06T02:16:02;99599.66;;;18.82;73.12
69855;BME280;57146;48.140;16.304;2022-07-06T02:18:30;99602.31;;;18.82;73.13
69855;BME280;57146;48.140;16.304;2022-07-06T02:20:57;99601.44;;;18.78;73.81
69855;BME280;57146;48.140;16.304;2022-07-06T02:23:26;99607.22;;;18.80;72.59
69855;BME280;57146;48.140;16.304;2022-07-06T02:25:54;99611.94;;;18.71;74.29
69855;BME280;57146;48.140;16.304;2022-07-06T02:28:23;99610.06;;;18.72;74.03
69855;BME280;57146;48.140;16.304;2022-07-06T02:30:51;99611.13;;;18.71;73.20
69855;BME280;57146;48.140;16.304;2022-07-06T02:33:18;99614.59;;;18.71;72.64
69855;BME280;57146;48.140;16.304;2022-07-06T02:35:46;99618.38;;;18.70;73.68
69855;BME280;57146;48.140;16.304;2022-07-06T02:38:12;99612.72;;;18.72;73.59
69855;BME280;57146;48.140;16.304;2022-07-06T02:40:39;99621.13;;;18.58;73.35
69855;BME280;57146;48.140;16.304;2022-07-06T02:43:07;99622.41;;;18.48;73.94
69855;BME280;57146;48.140;16.304;2022-07-06T02:45:35;99623.44;;;18.43;73.93
69855;BME280;57146;48.140;16.304;2022-07-06T02:48:03;99621.38;;;18.37;73.70
69855;BME280;57146;48.140;16.304;2022-07-06T02:50:32;99626.63;;;18.33;73.81
69855;BME280;57146;48.140;16.304;2022-07-06T02:52:59;99630.25;;;18.41;73.87
69855;BME280;57146;48.140;16.304;2022-07-06T02:55:26;99623.59;;;18.35;73.66
69855;BME280;57146;48.140;16.304;2022-07-06T02:57:54;99633.16;;;18.36;73.62
69855;BME280;57146;48.140;16.304;2022-07-06T03:00:22;99625.66;;;18.41;73.25
69855;BME280;57146;48.140;16.304;2022-07-06T03:02:50;99628.78;;;18.43;72.89
69855;BME280;57146;48.140;16.304;2022-07-06T03:05:17;99626.03;;;18.40;72.10
69855;BME280;57146;48.140;16.304;2022-07-06T03:07:45;99633.25;;;18.39;71.33
69855;BME280;57146;48.140;16.304;2022-07-06T03:10:13;99625.66;;;18.41;70.90
69855;BME280;57146;48.140;16.304;2022-07-06T03:12:41;99620.94;;;18.35;71.34
69855;BME280;57146;48.140;16.304;2022-07-06T03:15:08;99624.63;;;18.30;71.90
69855;BME280;57146;48.140;16.304;2022-07-06T03:17:37;99628.44;;;18.29;71.98
69855;BME280;57146;48.140;16.304;2022-07-06T03:20:05;99629.88;;;18.27;71.70
69855;BME280;57146;48.140;16.304;2022-07-06T03:22:32;99628.91;;;18.19;72.34
69855;BME280;57146;48.140;16.304;2022-07-06T03:24:59;99623.31;;;18.08;72.82
69855;BME280;57146;48.140;16.304;2022-07-06T03:27:28;99627.25;;;17.99;73.38
69855;BME280;57146;48.140;16.304;2022-07-06T03:29:55;99616.75;;;17.90;74.01
69855;BME280;57146;48.140;16.304;2022-07-06T03:32:22;99618.88;;;17.84;74.07
69855;BME280;57146;48.140;16.304;2022-07-06T03:34:49;99614.66;;;17.83;74.04
69855;BME280;57146;48.140;16.304;2022-07-06T03:37:17;99609.66;;;17.82;74.00
69855;BME280;57146;48.140;16.304;2022-07-06T03:39:44;99609.91;;;17.77;74.17
69855;BME280;57146;48.140;16.304;2022-07-06T03:42:11;99611.03;;;17.76;74.08
69855;BME280;57146;48.140;16.304;2022-07-06T03:44:38;99598.78;;;17.75;73.21
69855;BME280;57146;48.140;16.304;2022-07-06T03:47:05;99607.69;;;17.79;73.74
69855;BME280;57146;48.140;16.304;2022-07-06T03:49:32;99607.34;;;17.80;73.00
69855;BME280;57146;48.140;16.304;2022-07-06T03:52:01;99603.56;;;17.81;73.08
69855;BME280;57146;48.140;16.304;2022-07-06T03:54:33;99601.78;;;17.85;72.64
69855;BME280;57146;48.140;16.304;2022-07-06T03:57:04;99608.00;;;17.89;72.05
69855;BME280;57146;48.140;16.304;2022-07-06T03:59:32;99597.75;;;17.91;72.05
69855;BME280;57146;48.140;16.304;2022-07-06T04:02:00;99608.75;;;17.90;72.14
69855;BME280;57146;48.140;16.304;2022-07-06T04:04:27;99596.53;;;17.89;72.41
69855;BME280;57146;48.140;16.304;2022-07-06T04:06:54;99595.78;;;17.88;72.75
69855;BME280;57146;48.140;16.304;2022-07-06T04:09:23;99603.44;;;17.90;72.66
69855;BME280;57146;48.140;16.304;2022-07-06T04:11:50;99599.66;;;17.91;72.78
69855;BME280;57146;48.140;16.304;2022-07-06T04:14:18;99598.88;;;17.90;72.75
69855;BME280;57146;48.140;16.304;2022-07-06T04:16:46;99592.44;;;17.91;73.36
69855;BME280;57146;48.140;16.304;2022-07-06T04:19:13;99601.97;;;17.92;73.10
69855;BME280;57146;48.140;16.304;2022-07-06T04:21:40;99597.53;;;17.97;72.97
69855;BME280;57146;48.140;16.304;2022-07-06T04:24:08;99600.59;;;17.99;72.95
69855;BME280;57146;48.140;16.304;2022-07-06T04:26:36;99607.91;;;18.02;73.38
69855;BME280;57146;48.140;16.304;2022-07-06T04:29:04;99605.78;;;18.07;72.91
69855;BME280;57146;48.140;16.304;2022-07-06T04:31:31;99611.91;;;18.08;72.73
69855;BME280;57146;48.140;16.304;2022-07-06T04:33:58;99608.19;;;18.12;72.67
69855;BME280;57146;48.140;16.304;2022-07-06T04:36:26;99616.28;;;18.16;72.23
69855;BME280;57146;48.140;16.304;2022-07-06T04:38:54;99620.16;;;18.18;72.21
69855;BME280;57146;48.140;16.304;2022-07-06T04:41:21;99607.34;;;18.24;71.67
69855;BME280;57146;48.140;16.304;2022-07-06T04:43:50;99612.44;;;18.29;71.87
69855;BME280;57146;48.140;16.304;2022-07-06T04:46:18;99621.28;;;18.33;71.99
69855;BME280;57146;48.140;16.304;2022-07-06T04:48:47;99614.59;;;18.39;71.46
69855;BME280;57146;48.140;16.304;2022-07-06T04:51:19;99624.31;;;18.48;70.61
69855;BME280;57146;48.140;16.304;2022-07-06T04:53:46;99627.56;;;18.57;69.48
69855;BME280;57146;48.140;16.304;2022-07-06T04:56:14;99625.94;;;18.68;68.07
69855;BME280;57146;48.140;16.304;2022-07-06T04:58:42;99627.78;;;18.80;67.99
69855;BME280;57146;48.140;16.304;2022-07-06T05:01:12;99619.50;;;18.85;67.75
69855;BME280;57146;48.140;16.304;2022-07-06T05:03:39;99627.78;;;18.80;68.08
69855;BME280;57146;48.140;16.304;2022-07-06T05:06:08;99624.31;;;18.95;66.94
69855;BME280;57146;48.140;16.304;2022-07-06T05:08:35;99626.56;;;18.93;67.54
69855;BME280;57146;48.140;16.304;2022-07-06T05:11:01;99638.41;;;18.96;67.41
69855;BME280;57146;48.140;16.304;2022-07-06T05:13:29;99636.34;;;19.05;67.06
69855;BME280;57146;48.140;16.304;2022-07-06T05:15:56;99639.03;;;19.24;65.12
69855;BME280;57146;48.140;16.304;2022-07-06T05:18:24;99636.97;;;19.33;64.81
69855;BME280;57146;48.140;16.304;2022-07-06T05:20:52;99633.38;;;19.26;64.83
69855;BME280;57146;48.140;16.304;2022-07-06T05:23:19;99633.88;;;19.31;64.99
69855;BME280;57146;48.140;16.304;2022-07-06T05:25:46;99635.97;;;19.42;65.08
69855;BME280;57146;48.140;16.304;2022-07-06T05:28:13;99630.38;;;19.47;64.80
69855;BME280;57146;48.140;16.304;2022-07-06T05:30:40;99635.03;;;19.50;64.47
69855;BME280;57146;48.140;16.304;2022-07-06T05:33:08;99625.19;;;19.54;63.80
69855;BME280;57146;48.140;16.304;2022-07-06T05:35:36;99624.91;;;19.59;64.07
69855;BME280;57146;48.140;16.304;2022-07-06T05:38:20;99633.09;;;19.66;63.74
69855;BME280;57146;48.140;16.304;2022-07-06T05:40:47;99637.81;;;19.73;64.18
69855;BME280;57146;48.140;16.304;2022-07-06T05:43:15;99647.41;;;19.77;63.88
69855;BME280;57146;48.140;16.304;2022-07-06T05:45:42;99644.81;;;19.81;63.72
69855;BME280;57146;48.140;16.304;2022-07-06T05:48:10;99641.88;;;19.86;63.65
69855;BME280;57146;48.140;16.304;2022-07-06T05:50:37;99640.81;;;19.91;63.37
69855;BME280;57146;48.140;16.304;2022-07-06T05:53:05;99645.88;;;19.96;63.69
69855;BME280;57146;48.140;16.304;2022-07-06T05:55:44;99636.22;;;20.11;62.92
69855;BME280;57146;48.140;16.304;2022-07-06T05:58:12;99641.78;;;20.21;63.67
69855;BME280;57146;48.140;16.304;2022-07-06T06:00:40;99636.13;;;20.26;62.34
69855;BME280;57146;48.140;16.304;2022-07-06T06:03:13;99634.81;;;20.40;60.92
69855;BME280;57146;48.140;16.304;2022-07-06T06:05:40;99632.28;;;20.47;59.91
69855;BME280;57146;48.140;16.304;2022-07-06T06:08:09;99626.00;;;20.59;59.74
69855;BME280;57146;48.140;16.304;2022-07-06T06:10:36;99632.16;;;20.63;60.00
69855;BME280;57146;48.140;16.304;2022-07-06T06:13:07;99630.31;;;20.67;59.81
69855;BME280;57146;48.140;16.304;2022-07-06T06:15:34;99633.09;;;20.74;58.95
69855;BME280;57146;48.140;16.304;2022-07-06T06:18:03;99643.13;;;20.80;58.92
69855;BME280;57146;48.140;16.304;2022-07-06T06:20:31;99650.13;;;20.85;58.95
69855;BME280;57146;48.140;16.304;2022-07-06T06:22:59;99642.91;;;20.89;58.60
69855;BME280;57146;48.140;16.304;2022-07-06T06:25:34;99656.69;;;20.91;58.48
69855;BME280;57146;48.140;16.304;2022-07-06T06:28:04;99657.97;;;21.01;58.99
69855;BME280;57146;48.140;16.304;2022-07-06T06:30:32;99667.88;;;20.97;59.09
69855;BME280;57146;48.140;16.304;2022-07-06T06:33:15;99670.53;;;20.97;59.69
69855;BME280;57146;48.140;16.304;2022-07-06T06:35:44;99668.94;;;20.92;60.34
69855;BME280;57146;48.140;16.304;2022-07-06T06:38:12;99676.56;;;20.90;60.42
69855;BME280;57146;48.140;16.304;2022-07-06T06:40:40;99673.81;;;20.87;60.52
69855;BME280;57146;48.140;16.304;2022-07-06T06:43:07;99684.94;;;20.89;60.57
69855;BME280;57146;48.140;16.304;2022-07-06T06:45:41;99669.78;;;20.96;60.91
69855;BME280;57146;48.140;16.304;2022-07-06T06:48:08;99680.53;;;21.00;61.29
69855;BME280;57146;48.140;16.304;2022-07-06T06:50:43;99681.78;;;21.06;61.46
69855;BME280;57146;48.140;16.304;2022-07-06T06:53:10;99672.28;;;21.12;61.48
69855;BME280;57146;48.140;16.304;2022-07-06T06:55:37;99678.56;;;21.23;62.32
69855;BME280;57146;48.140;16.304;2022-07-06T06:58:04;99681.88;;;21.40;61.24
69855;BME280;57146;48.140;16.304;2022-07-06T07:00:31;99684.25;;;21.45;60.45
69855;BME280;57146;48.140;16.304;2022-07-06T07:02:58;99687.72;;;21.45;60.07
69855;BME280;57146;48.140;16.304;2022-07-06T07:05:25;99687.72;;;21.45;60.09
69855;BME280;57146;48.140;16.304;2022-07-06T07:07:52;99687.72;;;21.45;60.29
69855;BME280;57146;48.140;16.304;2022-07-06T07:10:19;99692.66;;;21.43;62.06
69855;BME280;57146;48.140;16.304;2022-07-06T07:12:46;99689.59;;;21.45;62.79
69855;BME280;57146;48.140;16.304;2022-07-06T07:15:14;99686.19;;;21.48;63.09
69855;BME280;57146;48.140;16.304;2022-07-06T07:17:42;99685.44;;;21.47;63.54
69855;BME280;57146;48.140;16.304;2022-07-06T07:20:09;99689.66;;;21.48;63.25
69855;BME280;57146;48.140;16.304;2022-07-06T07:22:36;99678.63;;;21.54;62.94
69855;BME280;57146;48.140;16.304;2022-07-06T07:25:04;99684.81;;;21.58;62.30
69855;BME280;57146;48.140;16.304;2022-07-06T07:27:32;99678.69;;;21.57;62.15
69855;BME280;57146;48.140;16.304;2022-07-06T07:29:59;99676.78;;;21.58;61.72
69855;BME280;57146;48.140;16.304;2022-07-06T07:32:25;99678.34;;;21.62;62.38
69855;BME280;57146;48.140;16.304;2022-07-06T07:34:52;99674.59;;;21.67;62.39
69855;BME280;57146;48.140;16.304;2022-07-06T07:37:19;99673.03;;;21.66;62.30
69855;BME280;57146;48.140;16.304;2022-07-06T07:39:46;99675.28;;;21.60;62.67
69855;BME280;57146;48.140;16.304;2022-07-06T07:42:13;99667.09;;;21.49;59.86
69855;BME280;57146;48.140;16.304;2022-07-06T07:44:44;99670.84;;;21.45;59.56
69855;BME280;57146;48.140;16.304;2022-07-06T07:47:11;99673.19;;;21.46;58.75
69855;BME280;57146;48.140;16.304;2022-07-06T07:49:37;99681.13;;;21.39;58.18
69855;BME280;57146;48.140;16.304;2022-07-06T07:52:05;99671.19;;;21.40;58.19
69855;BME280;57146;48.140;16.304;2022-07-06T07:54:32;99677.69;;;21.39;61.17
69855;BME280;57146;48.140;16.304;2022-07-06T07:56:59;99680.34;;;21.39;62.74
69855;BME280;57146;48.140;16.304;2022-07-06T07:59:26;99666.59;;;21.40;62.84
69855;BME280;57146;48.140;16.304;2022-07-06T08:01:53;99664.34;;;21.42;62.70
69855;BME280;57146;48.140;16.304;2022-07-06T08:04:20;99658.59;;;21.44;61.69
69855;BME280;57146;48.140;16.304;2022-07-06T08:06:47;99664.09;;;21.55;61.86
69855;BME280;57146;48.140;16.304;2022-07-06T08:09:14;99658.47;;;21.63;61.26
69855;BME280;57146;48.140;16.304;2022-07-06T08:11:41;99660.41;;;21.66;59.26
69855;BME280;57146;48.140;16.304;2022-07-06T08:14:08;99654.81;;;21.79;60.02
69855;BME280;57146;48.140;16.304;2022-07-06T08:16:35;99659.88;;;21.87;57.96
69855;BME280;57146;48.140;16.304;2022-07-06T08:19:02;99659.94;;;21.91;56.25
69855;BME280;57146;48.140;16.304;2022-07-06T08:21:36;99659.63;;;21.96;56.67
69855;BME280;57146;48.140;16.304;2022-07-06T08:24:03;99656.53;;;21.94;55.07
69855;BME280;57146;48.140;16.304;2022-07-06T08:26:30;99653.50;;;21.95;54.39
69855;BME280;57146;48.140;16.304;2022-07-06T08:28:57;99651.66;;;22.03;53.50
69855;BME280;57146;48.140;16.304;2022-07-06T08:31:24;99650.59;;;22.11;56.23
69855;BME280;57146;48.140;16.304;2022-07-06T08:34:11;99657.28;;;22.28;55.27
69855;BME280;57146;48.140;16.304;2022-07-06T08:36:38;99657.72;;;22.34;54.77
69855;BME280;57146;48.140;16.304;2022-07-06T08:39:05;99663.91;;;22.38;53.44
69855;BME280;57146;48.140;16.304;2022-07-06T08:41:32;99663.09;;;22.37;55.21
69855;BME280;57146;48.140;16.304;2022-07-06T08:43:59;99675.47;;;22.45;54.58
69855;BME280;57146;48.140;16.304;2022-07-06T08:46:28;99666.28;;;22.46;55.34
69855;BME280;57146;48.140;16.304;2022-07-06T08:48:55;99667.44;;;22.49;54.34
69855;BME280;57146;48.140;16.304;2022-07-06T08:51:24;99660.94;;;22.50;53.32
69855;BME280;57146;48.140;16.304;2022-07-06T08:53:56;99663.31;;;22.59;54.67
69855;BME280;57146;48.140;16.304;2022-07-06T08:56:23;99667.56;;;22.63;54.68
69855;BME280;57146;48.140;16.304;2022-07-06T08:58:50;99669.53;;;22.66;55.29
69855;BME280;57146;48.140;16.304;2022-07-06T09:01:17;99670.28;;;22.67;56.01
69855;BME280;57146;48.140;16.304;2022-07-06T09:03:45;99671.47;;;22.73;54.83
69855;BME280;57146;48.140;16.304;2022-07-06T09:06:16;99672.28;;;22.77;55.00
69855;BME280;57146;48.140;16.304;2022-07-06T09:08:46;99669.63;;;22.81;55.21
69855;BME280;57146;48.140;16.304;2022-07-06T09:11:14;99678.47;;;22.85;54.90
69855;BME280;57146;48.140;16.304;2022-07-06T09:13:42;99671.97;;;22.89;54.93
69855;BME280;57146;48.140;16.304;2022-07-06T09:16:12;99670.50;;;22.92;54.36
69855;BME280;57146;48.140;16.304;2022-07-06T09:19:00;99673.59;;;22.98;53.20
69855;BME280;57146;48.140;16.304;2022-07-06T09:21:31;99677.16;;;23.12;53.62
69855;BME280;57146;48.140;16.304;2022-07-06T09:24:01;99664.50;;;23.09;54.54
69855;BME280;57146;48.140;16.304;2022-07-06T09:26:28;99662.97;;;23.15;55.01
69855;BME280;57146;48.140;16.304;2022-07-06T09:28:56;99664.56;;;23.20;55.02
69855;BME280;57146;48.140;16.304;2022-07-06T09:31:24;99662.63;;;23.21;53.44
69855;BME280;57146;48.140;16.304;2022-07-06T09:34:04;99656.50;;;23.20;53.25
69855;BME280;57146;48.140;16.304;2022-07-06T09:36:49;99661.53;;;23.29;54.20
69855;BME280;57146;48.140;16.304;2022-07-06T09:39:24;99653.13;;;23.34;52.82
69855;BME280;57146;48.140;16.304;2022-07-06T09:42:02;99651.25;;;23.41;52.18
69855;BME280;57146;48.140;16.304;2022-07-06T09:44:31;99655.06;;;23.44;51.19
69855;BME280;57146;48.140;16.304;2022-07-06T09:47:01;99647.81;;;23.45;52.09
69855;BME280;57146;48.140;16.304;2022-07-06T09:49:29;99651.56;;;23.33;54.01
69855;BME280;57146;48.140;16.304;2022-07-06T09:51:58;99656.59;;;23.38;54.03
69855;BME280;57146;48.140;16.304;2022-07-06T09:54:25;99656.63;;;23.45;53.78
69855;BME280;57146;48.140;16.304;2022-07-06T09:56:54;99640.91;;;23.54;52.96
69855;BME280;57146;48.140;16.304;2022-07-06T09:59:27;99642.47;;;23.52;52.50
69855;BME280;57146;48.140;16.304;2022-07-06T10:01:56;99641.31;;;23.53;52.33
69855;BME280;57146;48.140;16.304;2022-07-06T10:04:25;99637.84;;;23.49;52.81
69855;BME280;57146;48.140;16.304;2022-07-06T10:06:53;99648.66;;;23.66;51.77
69855;BME280;57146;48.140;16.304;2022-07-06T10:09:22;99644.03;;;23.63;50.23
69855;BME280;57146;48.140;16.304;2022-07-06T10:11:59;99646.31;;;23.61;51.15
69855;BME280;57146;48.140;16.304;2022-07-06T10:14:29;99651.72;;;23.65;51.37
69855;BME280;57146;48.140;16.304;2022-07-06T10:16:57;99650.56;;;23.62;52.42
69855;BME280;57146;48.140;16.304;2022-07-06T10:19:25;99637.13;;;23.62;51.38
69855;BME280;57146;48.140;16.304;2022-07-06T10:21:53;99639.38;;;23.53;51.75
69855;BME280;57146;48.140;16.304;2022-07-06T10:24:20;99643.56;;;23.43;52.38
69855;BME280;57146;48.140;16.304;2022-07-06T10:26:48;99637.03;;;23.37;52.94
69855;BME280;57146;48.140;16.304;2022-07-06T10:29:15;99630.47;;;23.35;52.57
69855;BME280;57146;48.140;16.304;2022-07-06T10:31:45;99640.81;;;23.29;51.30
69855;BME280;57146;48.140;16.304;2022-07-06T10:34:14;99645.78;;;23.24;53.06
69855;BME280;57146;48.140;16.304;2022-07-06T10:36:44;99658.78;;;23.22;55.30
69855;BME280;57146;48.140;16.304;2022-07-06T10:39:11;99679.91;;;23.20;55.10
69855;BME280;57146;48.140;16.304;2022-07-06T10:41:38;99700.56;;;23.15;54.54
69855;BME280;57146;48.140;16.304;2022-07-06T10:44:18;99718.88;;;22.99;56.49
69855;BME280;57146;48.140;16.304;2022-07-06T10:46:56;99736.25;;;22.71;60.57
69855;BME280;57146;48.140;16.304;2022-07-06T10:49:25;99749.91;;;21.62;65.09
69855;BME280;57146;48.140;16.304;2022-07-06T10:52:16;99777.91;;;19.95;68.04
69855;BME280;57146;48.140;16.304;2022-07-06T10:54:43;99770.00;;;19.00;66.40
69855;BME280;57146;48.140;16.304;2022-07-06T10:57:13;99770.28;;;18.38;67.79
69855;BME280;57146;48.140;16.304;2022-07-06T10:59:40;99761.34;;;17.90;69.24
69855;BME280;57146;48.140;16.304;2022-07-06T11:02:17;99751.69;;;17.61;71.52
69855;BME280;57146;48.140;16.304;2022-07-06T11:04:47;99739.25;;;17.53;72.57
69855;BME280;57146;48.140;16.304;2022-07-06T11:07:19;99736.94;;;17.52;71.15
69855;BME280;57146;48.140;16.304;2022-07-06T11:09:57;99729.94;;;17.59;70.33
69855;BME280;57146;48.140;16.304;2022-07-06T11:12:25;99739.25;;;17.65;71.38
69855;BME280;57146;48.140;16.304;2022-07-06T11:14:54;99734.47;;;17.71;69.77
69855;BME280;57146;48.140;16.304;2022-07-06T11:17:21;99714.75;;;17.72;68.23
69855;BME280;57146;48.140;16.304;2022-07-06T11:19:49;99726.94;;;17.85;68.95
69855;BME280;57146;48.140;16.304;2022-07-06T11:22:17;99739.25;;;17.90;69.93
69855;BME280;57146;48.140;16.304;2022-07-06T11:24:45;99744.22;;;17.91;70.09
69855;BME280;57146;48.140;16.304;2022-07-06T11:27:12;99741.78;;;17.99;70.71
69855;BME280;57146;48.140;16.304;2022-07-06T11:29:40;99739.91;;;18.27;73.04
69855;BME280;57146;48.140;16.304;2022-07-06T11:32:08;99738.25;;;18.51;75.21
69855;BME280;57146;48.140;16.304;2022-07-06T11:34:44;99742.34;;;18.76;72.30
69855;BME280;57146;48.140;16.304;2022-07-06T11:37:13;99730.75;;;19.00;68.48
69855;BME280;57146;48.140;16.304;2022-07-06T11:39:42;99731.28;;;19.22;69.63
69855;BME280;57146;48.140;16.304;2022-07-06T11:42:10;99735.03;;;19.36;69.77
69855;BME280;57146;48.140;16.304;2022-07-06T11:44:39;99730.16;;;19.58;69.48
69855;BME280;57146;48.140;16.304;2022-07-06T11:47:07;99732.34;;;19.88;67.47
69855;BME280;57146;48.140;16.304;2022-07-06T11:49:36;99729.41;;;20.12;68.08
69855;BME280;57146;48.140;16.304;2022-07-06T11:52:08;99730.72;;;20.41;69.09
69855;BME280;57146;48.140;16.304;2022-07-06T11:54:35;99721.38;;;20.74;68.10
69855;BME280;57146;48.140;16.304;2022-07-06T11:57:03;99719.13;;;20.99;65.99
69855;BME280;57146;48.140;16.304;2022-07-06T11:59:34;99708.28;;;21.15;65.85
69855;BME280;57146;48.140;16.304;2022-07-06T12:02:03;99701.94;;;21.26;66.22
69855;BME280;57146;48.140;16.304;2022-07-06T12:04:32;99704.13;;;21.44;66.49
69855;BME280;57146;48.140;16.304;2022-07-06T12:07:05;99696.34;;;21.62;66.94
69855;BME280;57146;48.140;16.304;2022-07-06T12:09:33;99702.09;;;21.94;63.42
69855;BME280;57146;48.140;16.304;2022-07-06T12:12:02;99699.75;;;22.22;61.91
69855;BME280;57146;48.140;16.304;2022-07-06T12:14:31;99690.38;;;22.43;60.02
69855;BME280;57146;48.140;16.304;2022-07-06T12:17:13;99692.53;;;22.67;59.32
69855;BME280;57146;48.140;16.304;2022-07-06T12:19:41;99693.31;;;22.71;59.02
69855;BME280;57146;48.140;16.304;2022-07-06T12:22:08;99683.34;;;22.72;57.79
69855;BME280;57146;48.140;16.304;2022-07-06T12:24:36;99683.13;;;22.91;58.72
69855;BME280;57146;48.140;16.304;2022-07-06T12:27:15;99672.88;;;23.04;56.95
69855;BME280;57146;48.140;16.304;2022-07-06T12:29:42;99678.03;;;23.31;56.85
69855;BME280;57146;48.140;16.304;2022-07-06T12:32:16;99659.25;;;23.31;55.16
69855;BME280;57146;48.140;16.304;2022-07-06T12:34:43;99656.63;;;23.45;54.62
69855;BME280;57146;48.140;16.304;2022-07-06T12:37:11;99656.81;;;23.81;55.01
69855;BME280;57146;48.140;16.304;2022-07-06T12:39:55;99654.47;;;23.76;55.85
69855;BME280;57146;48.140;16.304;2022-07-06T12:42:22;99651.44;;;23.81;56.29
69855;BME280;57146;48.140;16.304;2022-07-06T12:44:50;99648.72;;;23.74;57.87
69855;BME280;57146;48.140;16.304;2022-07-06T12:47:22;99652.94;;;23.82;57.89
69855;BME280;57146;48.140;16.304;2022-07-06T12:50:10;99662.47;;;23.65;56.98
69855;BME280;57146;48.140;16.304;2022-07-06T12:52:38;99658.63;;;23.62;54.25
69855;BME280;57146;48.140;16.304;2022-07-06T12:55:06;99659.38;;;23.59;53.65
69855;BME280;57146;48.140;16.304;2022-07-06T12:57:48;99663.56;;;23.50;54.92
69855;BME280;57146;48.140;16.304;2022-07-06T13:00:17;99664.72;;;23.52;54.13